sensor_id;sensor_type;location;lat;lon;timestamp;temperature;humidity
33428;DHT22;19769;48.150;16.306;2023-05-07T00:01:28;15.10;99.90
33428;DHT22;19769;48.150;16.306;2023-05-07T00:03:54;15.10;99.90
33428;DHT22;19769;48.150;16.306;2023-05-07T00:06:19;15.10;99.90
33428;DHT22;19769;48.150;16.306;2023-05-07T00:08:45;15.10;99.90
33428;DHT22;19769;48.150;16.306;2023-05-07T00:11:11;15.10;99.90
33428;DHT22;19769;48.150;16.306;2023-05-07T00:13:36;14.90;99.90
33428;DHT22;19769;48.150;16.306;2023-05-07T00:16:02;15.00;99.90
33428;DHT22;19769;48.150;16.306;2023-05-07T00:18:28;15.00;99.90
33428;DHT22;19769;48.150;16.306;2023-05-07T00:20:54;15.00;99.90
33428;DHT22;19769;48.150;16.306;2023-05-07T00:23:19;14.90;99.90
33428;DHT22;19769;48.150;16.306;2023-05-07T00:25:45;14.90;99.90
33428;DHT22;19769;48.150;16.306;2023-05-07T00:28:11;14.90;99.90
33428;DHT22;19769;48.150;16.306;2023-05-07T00:30:36;14.90;99.90
33428;DHT22;19769;48.150;16.306;2023-05-07T00:33:02;14.90;99.90
33428;DHT22;19769;48.150;16.306;2023-05-07T00:35:28;14.90;99.90
33428;DHT22;19769;48.150;16.306;2023-05-07T00:37:54;15.60;99.90
33428;DHT22;19769;48.150;16.306;2023-05-07T00:40:20;14.90;99.90
33428;DHT22;19769;48.150;16.306;2023-05-07T00:42:46;14.90;99.90
33428;DHT22;19769;48.150;16.306;2023-05-07T00:45:13;14.80;99.90
33428;DHT22;19769;48.150;16.306;2023-05-07T00:47:39;14.70;99.90
33428;DHT22;19769;48.150;16.306;2023-05-07T00:50:05;14.70;99.90
33428;DHT22;19769;48.150;16.306;2023-05-07T00:52:31;14.70;99.90
33428;DHT22;19769;48.150;16.306;2023-05-07T00:54:56;14.70;99.90
33428;DHT22;19769;48.150;16.306;2023-05-07T00:57:23;14.70;99.90
33428;DHT22;19769;48.150;16.306;2023-05-07T00:59:50;14.80;99.90
33428;DHT22;19769;48.150;16.306;2023-05-07T01:02:32;14.70;99.90
33428;DHT22;19769;48.150;16.306;2023-05-07T01:04:58;14.70;99.90
33428;DHT22;19769;48.150;16.306;2023-05-07T01:07:29;14.60;99.90
33428;DHT22;19769;48.150;16.306;2023-05-07T01:09:55;13.50;99.90
33428;DHT22;19769;48.150;16.306;2023-05-07T01:12:21;14.60;99.90
33428;DHT22;19769;48.150;16.306;2023-05-07T01:14:47;14.60;99.90
33428;DHT22;19769;48.150;16.306;2023-05-07T01:17:15;14.60;99.90
33428;DHT22;19769;48.150;16.306;2023-05-07T01:19:41;14.60;99.90
33428;DHT22;19769;48.150;16.306;2023-05-07T01:25:42;14.50;99.90
33428;DHT22;19769;48.150;16.306;2023-05-07T01:28:42;14.50;99.90
33428;DHT22;19769;48.150;16.306;2023-05-07T01:35:13;14.40;99.90
33428;DHT22;19769;48.150;16.306;2023-05-07T01:37:41;14.50;99.90
33428;DHT22;19769;48.150;16.306;2023-05-07T01:40:10;14.80;99.90
33428;DHT22;19769;48.150;16.306;2023-05-07T01:42:36;15.00;99.90
33428;DHT22;19769;48.150;16.306;2023-05-07T01:45:01;14.40;99.90
33428;DHT22;19769;48.150;16.306;2023-05-07T01:47:27;14.40;99.90
33428;DHT22;19769;48.150;16.306;2023-05-07T01:49:54;14.40;99.90
33428;DHT22;19769;48.150;16.306;2023-05-07T01:52:20;14.40;99.90
33428;DHT22;19769;48.150;16.306;2023-05-07T01:54:46;14.40;99.90
33428;DHT22;19769;48.150;16.306;2023-05-07T01:57:12;15.00;99.90
33428;DHT22;19769;48.150;16.306;2023-05-07T01:59:37;14.30;99.90
33428;DHT22;19769;48.150;16.306;2023-05-07T02:02:03;14.30;99.90
33428;DHT22;19769;48.150;16.306;2023-05-07T02:04:30;14.20;99.90
33428;DHT22;19769;48.150;16.306;2023-05-07T02:06:55;14.20;99.90
33428;DHT22;19769;48.150;16.306;2023-05-07T02:09:21;14.20;99.90
33428;DHT22;19769;48.150;16.306;2023-05-07T02:11:49;14.20;99.90
33428;DHT22;19769;48.150;16.306;2023-05-07T02:14:16;14.20;99.90
33428;DHT22;19769;48.150;16.306;2023-05-07T02:16:42;14.20;99.90
33428;DHT22;19769;48.150;16.306;2023-05-07T02:19:10;14.70;99.90
33428;DHT22;19769;48.150;16.306;2023-05-07T02:21:35;14.20;99.90
33428;DHT22;19769;48.150;16.306;2023-05-07T02:24:01;14.20;99.90
33428;DHT22;19769;48.150;16.306;2023-05-07T02:26:27;14.10;99.90
33428;DHT22;19769;48.150;16.306;2023-05-07T02:28:53;14.10;99.90
33428;DHT22;19769;48.150;16.306;2023-05-07T02:31:19;14.20;99.90
33428;DHT22;19769;48.150;16.306;2023-05-07T02:33:45;14.10;99.90
33428;DHT22;19769;48.150;16.306;2023-05-07T02:36:12;14.10;99.90
33428;DHT22;19769;48.150;16.306;2023-05-07T02:38:47;14.10;99.90
33428;DHT22;19769;48.150;16.306;2023-05-07T02:41:13;14.10;99.90
33428;DHT22;19769;48.150;16.306;2023-05-07T02:43:39;14.00;99.90
33428;DHT22;19769;48.150;16.306;2023-05-07T02:46:05;14.10;99.90
33428;DHT22;19769;48.150;16.306;2023-05-07T02:48:34;14.10;99.90
33428;DHT22;19769;48.150;16.306;2023-05-07T02:51:00;14.10;99.90
33428;DHT22;19769;48.150;16.306;2023-05-07T02:53:26;14.00;99.90
33428;DHT22;19769;48.150;16.306;2023-05-07T02:55:59;14.10;99.90
33428;DHT22;19769;48.150;16.306;2023-05-07T03:01:39;14.00;99.90
33428;DHT22;19769;48.150;16.306;2023-05-07T03:04:06;14.00;99.90
33428;DHT22;19769;48.150;16.306;2023-05-07T03:06:32;13.90;99.90
33428;DHT22;19769;48.150;16.306;2023-05-07T03:08:58;14.00;99.90
33428;DHT22;19769;48.150;16.306;2023-05-07T03:11:24;15.00;99.90
33428;DHT22;19769;48.150;16.306;2023-05-07T03:13:49;13.90;99.90
33428;DHT22;19769;48.150;16.306;2023-05-07T03:16:16;13.90;99.90
33428;DHT22;19769;48.150;16.306;2023-05-07T03:18:42;13.90;99.90
33428;DHT22;19769;48.150;16.306;2023-05-07T03:21:08;13.90;99.90
33428;DHT22;19769;48.150;16.306;2023-05-07T03:23:34;13.90;99.90
33428;DHT22;19769;48.150;16.306;2023-05-07T03:26:00;13.90;99.90
33428;DHT22;19769;48.150;16.306;2023-05-07T03:28:26;13.90;99.90
33428;DHT22;19769;48.150;16.306;2023-05-07T03:30:57;13.90;99.90
33428;DHT22;19769;48.150;16.306;2023-05-07T03:33:23;13.80;99.90
33428;DHT22;19769;48.150;16.306;2023-05-07T03:35:49;13.90;99.90
33428;DHT22;19769;48.150;16.306;2023-05-07T03:38:19;13.90;99.90
33428;DHT22;19769;48.150;16.306;2023-05-07T03:40:45;13.90;99.90
33428;DHT22;19769;48.150;16.306;2023-05-07T03:43:11;14.00;99.90
33428;DHT22;19769;48.150;16.306;2023-05-07T03:45:40;14.00;99.90
33428;DHT22;19769;48.150;16.306;2023-05-07T03:48:11;14.00;99.90
33428;DHT22;19769;48.150;16.306;2023-05-07T03:50:37;14.00;99.90
33428;DHT22;19769;48.150;16.306;2023-05-07T03:53:03;14.00;99.90
33428;DHT22;19769;48.150;16.306;2023-05-07T03:55:30;14.00;99.90
33428;DHT22;19769;48.150;16.306;2023-05-07T03:57:58;14.00;99.90
33428;DHT22;19769;48.150;16.306;2023-05-07T04:00:26;14.10;99.90
33428;DHT22;19769;48.150;16.306;2023-05-07T04:02:52;14.10;99.90
33428;DHT22;19769;48.150;16.306;2023-05-07T04:05:25;14.10;99.90
33428;DHT22;19769;48.150;16.306;2023-05-07T04:07:57;14.20;99.90
33428;DHT22;19769;48.150;16.306;2023-05-07T04:10:30;14.50;99.90
33428;DHT22;19769;48.150;16.306;2023-05-07T04:12:57;14.30;99.90
33428;DHT22;19769;48.150;16.306;2023-05-07T04:15:24;14.30;99.90
33428;DHT22;19769;48.150;16.306;2023-05-07T04:17:50;14.30;99.90
33428;DHT22;19769;48.150;16.306;2023-05-07T04:20:19;14.40;99.90
33428;DHT22;19769;48.150;16.306;2023-05-07T04:22:50;14.40;99.90
33428;DHT22;19769;48.150;16.306;2023-05-07T04:25:15;14.50;99.90
33428;DHT22;19769;48.150;16.306;2023-05-07T04:27:41;14.50;99.90
33428;DHT22;19769;48.150;16.306;2023-05-07T04:30:07;14.60;99.90
33428;DHT22;19769;48.150;16.306;2023-05-07T04:32:37;14.70;99.90
33428;DHT22;19769;48.150;16.306;2023-05-07T04:35:03;14.70;99.90
33428;DHT22;19769;48.150;16.306;2023-05-07T04:37:31;14.80;99.90
33428;DHT22;19769;48.150;16.306;2023-05-07T04:39:57;14.90;99.90
33428;DHT22;19769;48.150;16.306;2023-05-07T04:42:26;14.90;99.90
33428;DHT22;19769;48.150;16.306;2023-05-07T04:44:52;15.90;99.90
33428;DHT22;19769;48.150;16.306;2023-05-07T04:47:18;15.10;99.90
33428;DHT22;19769;48.150;16.306;2023-05-07T04:49:46;15.20;99.90
33428;DHT22;19769;48.150;16.306;2023-05-07T04:52:11;15.40;99.90
33428;DHT22;19769;48.150;16.306;2023-05-07T04:54:37;15.50;99.90
33428;DHT22;19769;48.150;16.306;2023-05-07T04:57:04;15.50;99.90
33428;DHT22;19769;48.150;16.306;2023-05-07T04:59:30;15.80;99.90
33428;DHT22;19769;48.150;16.306;2023-05-07T05:01:56;15.60;99.90
33428;DHT22;19769;48.150;16.306;2023-05-07T05:04:22;15.50;99.90
33428;DHT22;19769;48.150;16.306;2023-05-07T05:06:47;15.70;99.90
33428;DHT22;19769;48.150;16.306;2023-05-07T05:09:13;15.70;99.90
33428;DHT22;19769;48.150;16.306;2023-05-07T05:11:41;15.70;99.90
33428;DHT22;19769;48.150;16.306;2023-05-07T05:14:06;15.80;99.90
33428;DHT22;19769;48.150;16.306;2023-05-07T05:16:32;15.80;99.90
33428;DHT22;19769;48.150;16.306;2023-05-07T05:18:59;15.80;99.90
33428;DHT22;19769;48.150;16.306;2023-05-07T05:21:25;15.90;99.90
33428;DHT22;19769;48.150;16.306;2023-05-07T05:23:55;16.00;99.90
33428;DHT22;19769;48.150;16.306;2023-05-07T05:26:24;16.10;99.90
33428;DHT22;19769;48.150;16.306;2023-05-07T05:28:49;16.20;99.90
33428;DHT22;19769;48.150;16.306;2023-05-07T05:31:18;16.10;99.90
33428;DHT22;19769;48.150;16.306;2023-05-07T05:33:43;16.20;99.90
33428;DHT22;19769;48.150;16.306;2023-05-07T05:36:13;16.10;99.90
33428;DHT22;19769;48.150;16.306;2023-05-07T05:38:39;16.10;99.90
33428;DHT22;19769;48.150;16.306;2023-05-07T05:41:06;16.20;99.90
33428;DHT22;19769;48.150;16.306;2023-05-07T05:43:31;16.20;99.90
33428;DHT22;19769;48.150;16.306;2023-05-07T05:46:04;16.20;99.90
33428;DHT22;19769;48.150;16.306;2023-05-07T05:48:34;16.10;99.90
33428;DHT22;19769;48.150;16.306;2023-05-07T05:51:04;16.10;99.90
33428;DHT22;19769;48.150;16.306;2023-05-07T05:53:30;16.00;99.90
33428;DHT22;19769;48.150;16.306;2023-05-07T05:55:56;15.90;99.90
33428;DHT22;19769;48.150;16.306;2023-05-07T05:58:22;15.80;99.90
33428;DHT22;19769;48.150;16.306;2023-05-07T06:00:53;15.90;99.90
33428;DHT22;19769;48.150;16.306;2023-05-07T06:03:22;15.90;99.90
33428;DHT22;19769;48.150;16.306;2023-05-07T06:05:48;15.90;99.90
33428;DHT22;19769;48.150;16.306;2023-05-07T06:08:15;15.80;99.90
33428;DHT22;19769;48.150;16.306;2023-05-07T06:10:40;15.80;99.90
33428;DHT22;19769;48.150;16.306;2023-05-07T06:13:07;15.70;99.90
33428;DHT22;19769;48.150;16.306;2023-05-07T06:15:35;15.80;99.90
33428;DHT22;19769;48.150;16.306;2023-05-07T06:18:06;15.80;99.90
33428;DHT22;19769;48.150;16.306;2023-05-07T06:20:32;15.80;99.90
33428;DHT22;19769;48.150;16.306;2023-05-07T06:22:59;15.90;99.90
33428;DHT22;19769;48.150;16.306;2023-05-07T06:25:25;15.90;99.90
33428;DHT22;19769;48.150;16.306;2023-05-07T06:27:51;15.90;99.90
33428;DHT22;19769;48.150;16.306;2023-05-07T06:30:17;15.90;99.90
33428;DHT22;19769;48.150;16.306;2023-05-07T06:32:42;15.90;99.90
33428;DHT22;19769;48.150;16.306;2023-05-07T06:35:10;16.10;99.90
33428;DHT22;19769;48.150;16.306;2023-05-07T06:37:38;16.10;99.90
33428;DHT22;19769;48.150;16.306;2023-05-07T06:40:06;16.30;99.90
33428;DHT22;19769;48.150;16.306;2023-05-07T06:42:37;16.40;99.90
33428;DHT22;19769;48.150;16.306;2023-05-07T06:45:22;16.40;99.90
33428;DHT22;19769;48.150;16.306;2023-05-07T06:47:48;16.50;99.90
33428;DHT22;19769;48.150;16.306;2023-05-07T06:50:13;16.50;99.90
33428;DHT22;19769;48.150;16.306;2023-05-07T06:52:43;16.60;99.90
33428;DHT22;19769;48.150;16.306;2023-05-07T06:55:09;16.50;99.90
33428;DHT22;19769;48.150;16.306;2023-05-07T06:57:36;16.60;99.90
33428;DHT22;19769;48.150;16.306;2023-05-07T07:00:02;16.70;99.90
33428;DHT22;19769;48.150;16.306;2023-05-07T07:02:30;16.80;99.90
33428;DHT22;19769;48.150;16.306;2023-05-07T07:04:56;16.90;99.90
33428;DHT22;19769;48.150;16.306;2023-05-07T07:07:21;17.10;99.90
33428;DHT22;19769;48.150;16.306;2023-05-07T07:13:00;17.50;99.90
33428;DHT22;19769;48.150;16.306;2023-05-07T07:15:26;17.00;99.90
33428;DHT22;19769;48.150;16.306;2023-05-07T07:17:53;17.10;99.90
33428;DHT22;19769;48.150;16.306;2023-05-07T07:20:25;17.30;99.90
33428;DHT22;19769;48.150;16.306;2023-05-07T07:22:51;17.60;99.90
33428;DHT22;19769;48.150;16.306;2023-05-07T07:25:20;17.20;99.90
33428;DHT22;19769;48.150;16.306;2023-05-07T07:27:50;16.90;99.90
33428;DHT22;19769;48.150;16.306;2023-05-07T07:30:16;17.30;99.90
33428;DHT22;19769;48.150;16.306;2023-05-07T07:32:46;17.70;99.90
33428;DHT22;19769;48.150;16.306;2023-05-07T07:35:11;18.00;99.90
33428;DHT22;19769;48.150;16.306;2023-05-07T07:37:38;18.20;99.90
33428;DHT22;19769;48.150;16.306;2023-05-07T07:40:05;18.20;99.90
33428;DHT22;19769;48.150;16.306;2023-05-07T07:42:33;18.00;99.90
33428;DHT22;19769;48.150;16.306;2023-05-07T07:44:59;17.80;99.90
33428;DHT22;19769;48.150;16.306;2023-05-07T07:47:28;17.60;99.90
33428;DHT22;19769;48.150;16.306;2023-05-07T07:50:10;17.40;99.90
33428;DHT22;19769;48.150;16.306;2023-05-07T07:52:44;17.20;99.90
33428;DHT22;19769;48.150;16.306;2023-05-07T07:55:22;16.70;99.90
33428;DHT22;19769;48.150;16.306;2023-05-07T07:58:02;17.10;99.90
33428;DHT22;19769;48.150;16.306;2023-05-07T08:00:36;17.10;99.90
33428;DHT22;19769;48.150;16.306;2023-05-07T08:03:02;17.00;99.90
33428;DHT22;19769;48.150;16.306;2023-05-07T08:05:33;17.00;99.90
33428;DHT22;19769;48.150;16.306;2023-05-07T08:07:59;17.00;99.90
33428;DHT22;19769;48.150;16.306;2023-05-07T08:10:30;17.10;99.90
33428;DHT22;19769;48.150;16.306;2023-05-07T08:13:04;17.20;99.90
33428;DHT22;19769;48.150;16.306;2023-05-07T08:15:45;17.20;99.90
33428;DHT22;19769;48.150;16.306;2023-05-07T08:18:20;17.30;99.90
33428;DHT22;19769;48.150;16.306;2023-05-07T08:21:09;15.80;99.90
33428;DHT22;19769;48.150;16.306;2023-05-07T08:24:06;17.30;99.90
33428;DHT22;19769;48.150;16.306;2023-05-07T08:26:37;17.20;99.90
33428;DHT22;19769;48.150;16.306;2023-05-07T08:29:15;17.50;99.90
33428;DHT22;19769;48.150;16.306;2023-05-07T08:32:07;17.70;99.90
33428;DHT22;19769;48.150;16.306;2023-05-07T08:35:03;17.00;99.90
33428;DHT22;19769;48.150;16.306;2023-05-07T08:38:12;18.10;99.90
33428;DHT22;19769;48.150;16.306;2023-05-07T08:40:43;18.50;99.90
33428;DHT22;19769;48.150;16.306;2023-05-07T08:43:50;18.80;99.90
33428;DHT22;19769;48.150;16.306;2023-05-07T08:46:34;18.60;99.90
33428;DHT22;19769;48.150;16.306;2023-05-07T08:49:00;19.40;99.90
33428;DHT22;19769;48.150;16.306;2023-05-07T08:51:26;19.70;99.90
33428;DHT22;19769;48.150;16.306;2023-05-07T08:56:48;20.10;99.90
33428;DHT22;19769;48.150;16.306;2023-05-07T08:59:14;20.20;99.90
33428;DHT22;19769;48.150;16.306;2023-05-07T09:01:44;20.20;99.90
33428;DHT22;19769;48.150;16.306;2023-05-07T09:04:36;20.20;99.90
33428;DHT22;19769;48.150;16.306;2023-05-07T09:07:07;20.40;99.90
33428;DHT22;19769;48.150;16.306;2023-05-07T09:09:50;21.20;99.90
33428;DHT22;19769;48.150;16.306;2023-05-07T09:12:28;20.60;99.90
33428;DHT22;19769;48.150;16.306;2023-05-07T09:14:54;20.40;99.90
33428;DHT22;19769;48.150;16.306;2023-05-07T09:17:20;20.40;99.90
33428;DHT22;19769;48.150;16.306;2023-05-07T09:19:46;20.40;99.90
33428;DHT22;19769;48.150;16.306;2023-05-07T09:22:14;20.40;99.90
33428;DHT22;19769;48.150;16.306;2023-05-07T09:24:50;20.30;99.90
33428;DHT22;19769;48.150;16.306;2023-05-07T09:27:17;20.30;99.90
33428;DHT22;19769;48.150;16.306;2023-05-07T09:29:44;20.20;99.90
33428;DHT22;19769;48.150;16.306;2023-05-07T09:32:10;20.20;99.90
33428;DHT22;19769;48.150;16.306;2023-05-07T09:34:36;20.50;99.90
33428;DHT22;19769;48.150;16.306;2023-05-07T09:37:02;20.90;99.90
33428;DHT22;19769;48.150;16.306;2023-05-07T09:39:38;21.50;99.90
33428;DHT22;19769;48.150;16.306;2023-05-07T09:42:04;21.80;99.00
33428;DHT22;19769;48.150;16.306;2023-05-07T09:44:34;21.90;98.60
33428;DHT22;19769;48.150;16.306;2023-05-07T09:47:02;21.80;97.60
33428;DHT22;19769;48.150;16.306;2023-05-07T09:49:36;21.90;99.70
33428;DHT22;19769;48.150;16.306;2023-05-07T09:52:06;22.00;97.40
33428;DHT22;19769;48.150;16.306;2023-05-07T09:54:39;22.20;99.90
33428;DHT22;19769;48.150;16.306;2023-05-07T09:57:06;22.50;95.80
33428;DHT22;19769;48.150;16.306;2023-05-07T09:59:33;22.50;96.50
33428;DHT22;19769;48.150;16.306;2023-05-07T10:02:03;22.70;97.40
33428;DHT22;19769;48.150;16.306;2023-05-07T10:04:31;22.90;93.60
33428;DHT22;19769;48.150;16.306;2023-05-07T10:07:01;22.80;94.80
33428;DHT22;19769;48.150;16.306;2023-05-07T10:09:32;23.00;93.70
33428;DHT22;19769;48.150;16.306;2023-05-07T10:11:59;23.00;92.00
33428;DHT22;19769;48.150;16.306;2023-05-07T10:14:25;23.20;92.10
33428;DHT22;19769;48.150;16.306;2023-05-07T10:16:52;23.20;91.60
33428;DHT22;19769;48.150;16.306;2023-05-07T10:19:19;23.10;92.20
33428;DHT22;19769;48.150;16.306;2023-05-07T10:21:57;23.30;92.50
33428;DHT22;19769;48.150;16.306;2023-05-07T10:24:26;23.60;93.70
33428;DHT22;19769;48.150;16.306;2023-05-07T10:26:55;24.10;89.10
33428;DHT22;19769;48.150;16.306;2023-05-07T10:29:33;24.70;89.90
33428;DHT22;19769;48.150;16.306;2023-05-07T10:32:11;25.00;85.10
33428;DHT22;19769;48.150;16.306;2023-05-07T10:34:43;24.90;85.80
33428;DHT22;19769;48.150;16.306;2023-05-07T10:37:11;24.40;82.70
33428;DHT22;19769;48.150;16.306;2023-05-07T10:39:39;24.30;84.90
33428;DHT22;19769;48.150;16.306;2023-05-07T10:42:12;24.80;84.60
33428;DHT22;19769;48.150;16.306;2023-05-07T10:44:41;25.50;84.70
33428;DHT22;19769;48.150;16.306;2023-05-07T10:47:14;26.10;84.10
33428;DHT22;19769;48.150;16.306;2023-05-07T10:52:23;26.10;77.60
33428;DHT22;19769;48.150;16.306;2023-05-07T10:57:41;25.60;72.40
33428;DHT22;19769;48.150;16.306;2023-05-07T11:05:28;24.30;75.50
33428;DHT22;19769;48.150;16.306;2023-05-07T11:11:47;24.00;80.00
33428;DHT22;19769;48.150;16.306;2023-05-07T11:17:30;24.30;76.60
33428;DHT22;19769;48.150;16.306;2023-05-07T11:20:04;24.40;81.30
33428;DHT22;19769;48.150;16.306;2023-05-07T11:22:50;24.80;76.30
33428;DHT22;19769;48.150;16.306;2023-05-07T11:25:36;25.00;77.70
33428;DHT22;19769;48.150;16.306;2023-05-07T11:28:11;25.20;77.30
33428;DHT22;19769;48.150;16.306;2023-05-07T11:30:45;25.00;75.60
33428;DHT22;19769;48.150;16.306;2023-05-07T11:33:16;25.00;76.40
33428;DHT22;19769;48.150;16.306;2023-05-07T11:35:42;25.10;79.50
33428;DHT22;19769;48.150;16.306;2023-05-07T11:38:11;25.20;72.40
33428;DHT22;19769;48.150;16.306;2023-05-07T11:40:51;25.00;75.40
33428;DHT22;19769;48.150;16.306;2023-05-07T11:43:17;24.70;74.60
33428;DHT22;19769;48.150;16.306;2023-05-07T11:45:44;24.40;74.10
33428;DHT22;19769;48.150;16.306;2023-05-07T11:48:09;24.30;80.30
33428;DHT22;19769;48.150;16.306;2023-05-07T11:50:35;24.40;78.30
33428;DHT22;19769;48.150;16.306;2023-05-07T11:53:07;24.60;75.40
33428;DHT22;19769;48.150;16.306;2023-05-07T11:55:32;24.60;78.50
33428;DHT22;19769;48.150;16.306;2023-05-07T11:57:58;24.70;74.40
33428;DHT22;19769;48.150;16.306;2023-05-07T12:00:24;24.50;77.90
33428;DHT22;19769;48.150;16.306;2023-05-07T12:02:49;24.80;74.00
33428;DHT22;19769;48.150;16.306;2023-05-07T12:05:15;24.80;74.20
33428;DHT22;19769;48.150;16.306;2023-05-07T12:07:41;24.80;70.90
33428;DHT22;19769;48.150;16.306;2023-05-07T12:10:07;24.70;69.60
33428;DHT22;19769;48.150;16.306;2023-05-07T12:12:41;24.50;72.90
33428;DHT22;19769;48.150;16.306;2023-05-07T12:15:11;24.30;73.70
33428;DHT22;19769;48.150;16.306;2023-05-07T12:17:36;24.30;73.90
33428;DHT22;19769;48.150;16.306;2023-05-07T12:20:02;24.30;73.90
33428;DHT22;19769;48.150;16.306;2023-05-07T12:22:28;24.30;74.10
33428;DHT22;19769;48.150;16.306;2023-05-07T12:24:57;24.10;74.90
33428;DHT22;19769;48.150;16.306;2023-05-07T12:27:23;24.20;72.70
33428;DHT22;19769;48.150;16.306;2023-05-07T12:29:49;24.10;76.50
33428;DHT22;19769;48.150;16.306;2023-05-07T12:32:19;24.20;72.90
33428;DHT22;19769;48.150;16.306;2023-05-07T12:34:46;24.10;73.30
33428;DHT22;19769;48.150;16.306;2023-05-07T12:37:12;23.90;72.70
33428;DHT22;19769;48.150;16.306;2023-05-07T12:39:44;23.80;75.70
33428;DHT22;19769;48.150;16.306;2023-05-07T12:42:10;23.90;75.70
33428;DHT22;19769;48.150;16.306;2023-05-07T12:44:40;24.20;73.90
33428;DHT22;19769;48.150;16.306;2023-05-07T12:47:06;24.50;73.60
33428;DHT22;19769;48.150;16.306;2023-05-07T12:49:31;24.50;72.60
33428;DHT22;19769;48.150;16.306;2023-05-07T12:51:59;24.40;70.40
33428;DHT22;19769;48.150;16.306;2023-05-07T12:54:29;24.20;72.70
33428;DHT22;19769;48.150;16.306;2023-05-07T12:57:02;23.90;72.70
33428;DHT22;19769;48.150;16.306;2023-05-07T12:59:39;23.90;74.70
33428;DHT22;19769;48.150;16.306;2023-05-07T13:02:05;24.10;71.00
33428;DHT22;19769;48.150;16.306;2023-05-07T13:04:31;24.30;72.90
33428;DHT22;19769;48.150;16.306;2023-05-07T13:06:57;24.30;72.20
33428;DHT22;19769;48.150;16.306;2023-05-07T13:09:23;24.40;76.50
33428;DHT22;19769;48.150;16.306;2023-05-07T13:11:48;24.70;73.50
33428;DHT22;19769;48.150;16.306;2023-05-07T13:14:15;24.80;75.60
33428;DHT22;19769;48.150;16.306;2023-05-07T13:16:40;24.90;73.50
33428;DHT22;19769;48.150;16.306;2023-05-07T13:19:06;25.10;73.60
33428;DHT22;19769;48.150;16.306;2023-05-07T13:21:32;24.90;70.40
33428;DHT22;19769;48.150;16.306;2023-05-07T13:23:58;24.90;72.80
33428;DHT22;19769;48.150;16.306;2023-05-07T13:26:24;24.90;72.30
33428;DHT22;19769;48.150;16.306;2023-05-07T13:28:50;24.60;71.20
33428;DHT22;19769;48.150;16.306;2023-05-07T13:31:16;24.40;71.80
33428;DHT22;19769;48.150;16.306;2023-05-07T13:33:42;24.10;72.50
33428;DHT22;19769;48.150;16.306;2023-05-07T13:36:08;23.80;73.50
33428;DHT22;19769;48.150;16.306;2023-05-07T13:38:34;23.50;72.40
33428;DHT22;19769;48.150;16.306;2023-05-07T13:41:00;23.40;72.40
33428;DHT22;19769;48.150;16.306;2023-05-07T13:43:26;23.20;72.60
33428;DHT22;19769;48.150;16.306;2023-05-07T13:45:51;23.00;74.40
33428;DHT22;19769;48.150;16.306;2023-05-07T13:48:17;23.00;73.50
33428;DHT22;19769;48.150;16.306;2023-05-07T13:50:42;22.80;73.50
33428;DHT22;19769;48.150;16.306;2023-05-07T13:53:08;22.80;75.20
33428;DHT22;19769;48.150;16.306;2023-05-07T13:55:34;22.80;77.90
33428;DHT22;19769;48.150;16.306;2023-05-07T13:58:00;22.80;74.50
33428;DHT22;19769;48.150;16.306;2023-05-07T14:00:26;22.90;75.60
33428;DHT22;19769;48.150;16.306;2023-05-07T14:02:52;22.80;74.10
33428;DHT22;19769;48.150;16.306;2023-05-07T14:05:18;22.80;75.10
33428;DHT22;19769;48.150;16.306;2023-05-07T14:07:45;22.90;77.40
33428;DHT22;19769;48.150;16.306;2023-05-07T14:10:11;23.00;73.30
33428;DHT22;19769;48.150;16.306;2023-05-07T14:12:38;23.00;75.90
33428;DHT22;19769;48.150;16.306;2023-05-07T14:15:04;22.90;76.40
33428;DHT22;19769;48.150;16.306;2023-05-07T14:17:29;22.80;73.10
33428;DHT22;19769;48.150;16.306;2023-05-07T14:19:55;22.70;74.10
33428;DHT22;19769;48.150;16.306;2023-05-07T14:22:21;22.50;73.10
33428;DHT22;19769;48.150;16.306;2023-05-07T14:24:48;22.40;73.10
33428;DHT22;19769;48.150;16.306;2023-05-07T14:27:14;22.40;73.70
33428;DHT22;19769;48.150;16.306;2023-05-07T14:29:39;22.50;73.20
33428;DHT22;19769;48.150;16.306;2023-05-07T14:32:05;22.40;72.20
33428;DHT22;19769;48.150;16.306;2023-05-07T14:34:31;22.30;73.00
33428;DHT22;19769;48.150;16.306;2023-05-07T14:36:57;22.20;73.00
33428;DHT22;19769;48.150;16.306;2023-05-07T14:39:23;22.20;72.60
33428;DHT22;19769;48.150;16.306;2023-05-07T14:41:48;22.10;72.60
33428;DHT22;19769;48.150;16.306;2023-05-07T14:44:14;21.90;74.40
33428;DHT22;19769;48.150;16.306;2023-05-07T14:46:39;21.90;73.10
33428;DHT22;19769;48.150;16.306;2023-05-07T14:49:05;21.70;75.60
33428;DHT22;19769;48.150;16.306;2023-05-07T14:51:32;21.60;76.00
33428;DHT22;19769;48.150;16.306;2023-05-07T14:53:58;21.50;74.50
33428;DHT22;19769;48.150;16.306;2023-05-07T14:56:24;21.50;75.30
33428;DHT22;19769;48.150;16.306;2023-05-07T14:58:50;21.40;77.50
33428;DHT22;19769;48.150;16.306;2023-05-07T15:01:16;21.30;77.10
33428;DHT22;19769;48.150;16.306;2023-05-07T15:03:41;21.10;77.70
33428;DHT22;19769;48.150;16.306;2023-05-07T15:06:07;21.00;78.30
33428;DHT22;19769;48.150;16.306;2023-05-07T15:08:33;20.90;78.90
33428;DHT22;19769;48.150;16.306;2023-05-07T15:10:58;20.80;78.30
33428;DHT22;19769;48.150;16.306;2023-05-07T15:13:24;20.70;79.20
33428;DHT22;19769;48.150;16.306;2023-05-07T15:15:50;20.70;80.50
33428;DHT22;19769;48.150;16.306;2023-05-07T15:18:16;20.70;79.00
33428;DHT22;19769;48.150;16.306;2023-05-07T15:20:42;20.70;78.80
33428;DHT22;19769;48.150;16.306;2023-05-07T15:23:08;20.70;80.70
33428;DHT22;19769;48.150;16.306;2023-05-07T15:25:42;20.60;82.00
33428;DHT22;19769;48.150;16.306;2023-05-07T15:28:08;20.60;80.60
33428;DHT22;19769;48.150;16.306;2023-05-07T15:30:33;20.60;80.80
33428;DHT22;19769;48.150;16.306;2023-05-07T15:33:00;20.50;81.40
33428;DHT22;19769;48.150;16.306;2023-05-07T15:35:26;20.50;81.60
33428;DHT22;19769;48.150;16.306;2023-05-07T15:37:52;20.50;82.40
33428;DHT22;19769;48.150;16.306;2023-05-07T15:40:19;20.50;81.20
33428;DHT22;19769;48.150;16.306;2023-05-07T15:42:45;20.50;81.40
33428;DHT22;19769;48.150;16.306;2023-05-07T15:45:11;20.50;82.00
33428;DHT22;19769;48.150;16.306;2023-05-07T15:47:37;20.40;81.90
33428;DHT22;19769;48.150;16.306;2023-05-07T15:50:03;20.40;81.20
33428;DHT22;19769;48.150;16.306;2023-05-07T15:52:29;20.30;81.70
33428;DHT22;19769;48.150;16.306;2023-05-07T15:54:55;20.30;82.60
33428;DHT22;19769;48.150;16.306;2023-05-07T15:57:21;20.30;82.30